sensor_id;sensor_type;location;lat;lon;timestamp;pressure;altitude;pressure_sealevel;temperature;humidity
59767;BME280;46248;58.364;25.582;2023-04-26T00:01:57;99527.13;;;9.02;64.67
59767;BME280;46248;58.364;25.582;2023-04-26T00:05:20;99526.56;;;8.97;65.24
59767;BME280;46248;58.364;25.582;2023-04-26T00:08:42;99519.34;;;8.86;65.42
59767;BME280;46248;58.364;25.582;2023-04-26T00:12:04;99512.84;;;8.79;65.06
59767;BME280;46248;58.364;25.582;2023-04-26T00:15:26;99519.25;;;8.73;66.65
59767;BME280;46248;58.364;25.582;2023-04-26T00:18:49;99536.03;;;8.69;67.18
59767;BME280;46248;58.364;25.582;2023-04-26T00:22:11;99535.56;;;8.62;67.98
59767;BME280;46248;58.364;25.582;2023-04-26T00:25:32;99530.69;;;8.56;68.28
59767;BME280;46248;58.364;25.582;2023-04-26T00:28:54;99521.66;;;8.47;68.95
59767;BME280;46248;58.364;25.582;2023-04-26T00:32:16;99523.91;;;8.38;69.39
59767;BME280;46248;58.364;25.582;2023-04-26T00:35:39;99533.03;;;8.31;69.24
59767;BME280;46248;58.364;25.582;2023-04-26T00:39:01;99532.59;;;8.22;69.36
59767;BME280;46248;58.364;25.582;2023-04-26T00:42:23;99521.97;;;8.11;67.16
59767;BME280;46248;58.364;25.582;2023-04-26T00:45:48;99517.84;;;8.07;68.40
59767;BME280;46248;58.364;25.582;2023-04-26T00:49:11;99522.41;;;8.03;68.12
59767;BME280;46248;58.364;25.582;2023-04-26T00:52:37;99517.63;;;7.96;68.56
59767;BME280;46248;58.364;25.582;2023-04-26T00:56:00;99526.63;;;7.90;68.93
59767;BME280;46248;58.364;25.582;2023-04-26T00:59:22;99523.44;;;7.85;68.95
59767;BME280;46248;58.364;25.582;2023-04-26T01:02:45;99519.75;;;7.73;69.51
59767;BME280;46248;58.364;25.582;2023-04-26T01:06:07;99518.06;;;7.72;68.81
59767;BME280;46248;58.364;25.582;2023-04-26T01:09:31;99511.66;;;7.62;70.00
59767;BME280;46248;58.364;25.582;2023-04-26T01:12:53;99512.53;;;7.63;68.73
59767;BME280;46248;58.364;25.582;2023-04-26T01:16:15;99509.34;;;7.57;68.80
59767;BME280;46248;58.364;25.582;2023-04-26T01:19:46;99509.66;;;7.51;69.85
59767;BME280;46248;58.364;25.582;2023-04-26T01:23:09;99525.78;;;7.42;67.98
59767;BME280;46248;58.364;25.582;2023-04-26T01:26:31;99519.47;;;7.30;70.27
59767;BME280;46248;58.364;25.582;2023-04-26T01:29:52;99515.53;;;7.23;70.74
59767;BME280;46248;58.364;25.582;2023-04-26T01:33:14;99513.25;;;7.17;70.15
59767;BME280;46248;58.364;25.582;2023-04-26T01:36:36;99518.38;;;7.19;69.81
59767;BME280;46248;58.364;25.582;2023-04-26T01:39:59;99519.53;;;7.13;70.37
59767;BME280;46248;58.364;25.582;2023-04-26T01:43:21;99535.41;;;7.08;69.91
59767;BME280;46248;58.364;25.582;2023-04-26T01:46:43;99528.66;;;7.04;70.35
59767;BME280;46248;58.364;25.582;2023-04-26T01:50:06;99534.13;;;7.00;70.55
59767;BME280;46248;58.364;25.582;2023-04-26T01:53:28;99534.50;;;6.92;72.26
59767;BME280;46248;58.364;25.582;2023-04-26T01:56:51;99553.28;;;6.81;72.66
59767;BME280;46248;58.364;25.582;2023-04-26T02:00:14;99563.91;;;6.77;74.31
59767;BME280;46248;58.364;25.582;2023-04-26T02:03:36;99561.56;;;6.72;73.88
59767;BME280;46248;58.364;25.582;2023-04-26T02:06:58;99561.63;;;6.71;74.98
59767;BME280;46248;58.364;25.582;2023-04-26T02:10:20;99559.19;;;6.68;75.95
59767;BME280;46248;58.364;25.582;2023-04-26T02:13:43;99556.97;;;6.60;76.74
59767;BME280;46248;58.364;25.582;2023-04-26T02:17:05;99552.09;;;6.54;77.79
59767;BME280;46248;58.364;25.582;2023-04-26T02:20:28;99553.97;;;6.50;78.12
59767;BME280;46248;58.364;25.582;2023-04-26T02:23:50;99563.84;;;6.43;79.81
59767;BME280;46248;58.364;25.582;2023-04-26T02:27:12;99564.16;;;6.37;79.79
59767;BME280;46248;58.364;25.582;2023-04-26T02:30:35;99577.44;;;6.31;81.40
59767;BME280;46248;58.364;25.582;2023-04-26T02:33:57;99577.84;;;6.24;81.85
59767;BME280;46248;58.364;25.582;2023-04-26T02:37:19;99579.13;;;6.15;82.95
59767;BME280;46248;58.364;25.582;2023-04-26T02:40:41;99577.84;;;6.05;84.59
59767;BME280;46248;58.364;25.582;2023-04-26T02:44:03;99588.34;;;6.03;85.25
59767;BME280;46248;58.364;25.582;2023-04-26T02:47:26;99581.72;;;5.96;86.78
59767;BME280;46248;58.364;25.582;2023-04-26T02:50:48;99579.38;;;5.90;89.66
59767;BME280;46248;58.364;25.582;2023-04-26T02:54:10;99581.00;;;5.92;90.58
59767;BME280;46248;58.364;25.582;2023-04-26T02:57:32;99569.75;;;5.93;91.67
59767;BME280;46248;58.364;25.582;2023-04-26T03:00:56;99580.59;;;6.02;92.58
59767;BME280;46248;58.364;25.582;2023-04-26T03:04:22;99589.03;;;6.07;92.89
59767;BME280;46248;58.364;25.582;2023-04-26T03:07:45;99580.09;;;6.12;93.79
59767;BME280;46248;58.364;25.582;2023-04-26T03:11:07;99575.59;;;6.16;94.58
59767;BME280;46248;58.364;25.582;2023-04-26T03:14:29;99582.16;;;6.23;95.23
59767;BME280;46248;58.364;25.582;2023-04-26T03:17:50;99578.59;;;6.26;95.96
59767;BME280;46248;58.364;25.582;2023-04-26T03:21:14;99578.13;;;6.35;96.54
59767;BME280;46248;58.364;25.582;2023-04-26T03:24:36;99582.28;;;6.39;98.03
59767;BME280;46248;58.364;25.582;2023-04-26T03:27:58;99574.19;;;6.45;98.19
59767;BME280;46248;58.364;25.582;2023-04-26T03:31:19;99564.47;;;6.49;99.42
59767;BME280;46248;58.364;25.582;2023-04-26T03:34:42;99572.91;;;6.54;99.95
59767;BME280;46248;58.364;25.582;2023-04-26T03:38:05;99568.22;;;6.60;99.92
59767;BME280;46248;58.364;25.582;2023-04-26T03:41:27;99572.19;;;6.68;100.00
59767;BME280;46248;58.364;25.582;2023-04-26T03:44:48;99573.50;;;6.76;100.00
59767;BME280;46248;58.364;25.582;2023-04-26T03:48:10;99581.75;;;6.84;100.00
59767;BME280;46248;58.364;25.582;2023-04-26T03:51:32;99591.75;;;6.92;100.00
59767;BME280;46248;58.364;25.582;2023-04-26T03:54:55;99582.13;;;6.94;100.00
59767;BME280;46248;58.364;25.582;2023-04-26T03:58:17;99585.09;;;7.04;100.00
59767;BME280;46248;58.364;25.582;2023-04-26T04:01:39;99575.34;;;7.07;100.00
59767;BME280;46248;58.364;25.582;2023-04-26T04:05:01;99574.81;;;7.18;100.00
59767;BME280;46248;58.364;25.582;2023-04-26T04:08:23;99577.88;;;7.26;100.00
59767;BME280;46248;58.364;25.582;2023-04-26T04:11:47;99573.16;;;7.33;100.00
59767;BME280;46248;58.364;25.582;2023-04-26T04:15:09;99578.63;;;7.44;100.00
59767;BME280;46248;58.364;25.582;2023-04-26T04:18:31;99583.28;;;7.55;100.00
59767;BME280;46248;58.364;25.582;2023-04-26T04:21:53;99582.09;;;7.61;100.00
59767;BME280;46248;58.364;25.582;2023-04-26T04:25:15;99573.03;;;7.68;100.00
59767;BME280;46248;58.364;25.582;2023-04-26T04:28:38;99567.66;;;7.71;100.00
59767;BME280;46248;58.364;25.582;2023-04-26T04:32:01;99572.69;;;7.74;100.00
59767;BME280;46248;58.364;25.582;2023-04-26T04:35:22;99579.50;;;7.76;100.00
59767;BME280;46248;58.364;25.582;2023-04-26T04:38:48;99583.72;;;7.79;100.00
59767;BME280;46248;58.364;25.582;2023-04-26T04:42:09;99586.16;;;7.82;100.00
59767;BME280;46248;58.364;25.582;2023-04-26T04:45:33;99593.81;;;7.85;100.00
59767;BME280;46248;58.364;25.582;2023-04-26T04:48:56;99591.84;;;7.89;100.00
59767;BME280;46248;58.364;25.582;2023-04-26T04:52:18;99594.31;;;7.92;100.00
59767;BME280;46248;58.364;25.582;2023-04-26T04:55:41;99587.47;;;7.89;100.00
59767;BME280;46248;58.364;25.582;2023-04-26T04:59:03;99595.22;;;7.91;100.00
59767;BME280;46248;58.364;25.582;2023-04-26T05:02:26;99599.44;;;7.93;100.00
59767;BME280;46248;58.364;25.582;2023-04-26T05:05:48;99609.53;;;7.99;100.00
59767;BME280;46248;58.364;25.582;2023-04-26T05:09:10;99603.38;;;8.00;100.00
59767;BME280;46248;58.364;25.582;2023-04-26T05:12:32;99607.66;;;8.01;100.00
59767;BME280;46248;58.364;25.582;2023-04-26T05:15:54;99612.81;;;8.03;100.00
59767;BME280;46248;58.364;25.582;2023-04-26T05:19:18;99603.38;;;8.00;100.00
59767;BME280;46248;58.364;25.582;2023-04-26T05:22:39;99620.47;;;8.06;100.00
59767;BME280;46248;58.364;25.582;2023-04-26T05:26:02;99628.00;;;8.11;100.00
59767;BME280;46248;58.364;25.582;2023-04-26T05:29:28;99611.53;;;8.10;100.00
59767;BME280;46248;58.364;25.582;2023-04-26T05:32:50;99621.63;;;8.16;100.00
59767;BME280;46248;58.364;25.582;2023-04-26T05:36:13;99640.41;;;8.23;100.00
59767;BME280;46248;58.364;25.582;2023-04-26T05:39:35;99637.69;;;8.24;100.00
59767;BME280;46248;58.364;25.582;2023-04-26T05:42:57;99646.09;;;8.30;100.00
59767;BME280;46248;58.364;25.582;2023-04-26T05:46:19;99640.88;;;8.30;100.00
59767;BME280;46248;58.364;25.582;2023-04-26T05:49:41;99638.66;;;8.38;100.00
59767;BME280;46248;58.364;25.582;2023-04-26T05:53:04;99630.63;;;8.42;100.00
59767;BME280;46248;58.364;25.582;2023-04-26T05:56:26;99644.09;;;8.51;100.00
59767;BME280;46248;58.364;25.582;2023-04-26T05:59:48;99632.53;;;8.55;100.00
59767;BME280;46248;58.364;25.582;2023-04-26T06:03:10;99628.81;;;8.59;100.00
59767;BME280;46248;58.364;25.582;2023-04-26T06:06:32;99625.38;;;8.58;100.00
59767;BME280;46248;58.364;25.582;2023-04-26T06:09:56;99632.97;;;8.63;100.00
59767;BME280;46248;58.364;25.582;2023-04-26T06:13:18;99633.69;;;8.65;100.00
59767;BME280;46248;58.364;25.582;2023-04-26T06:16:40;99629.34;;;8.65;100.00
59767;BME280;46248;58.364;25.582;2023-04-26T06:20:03;99632.50;;;8.70;100.00
59767;BME280;46248;58.364;25.582;2023-04-26T06:23:25;99633.91;;;8.76;99.99
59767;BME280;46248;58.364;25.582;2023-04-26T06:26:49;99627.59;;;8.80;99.39
59767;BME280;46248;58.364;25.582;2023-04-26T06:30:12;99626.38;;;8.86;99.15
59767;BME280;46248;58.364;25.582;2023-04-26T06:33:33;99632.78;;;8.96;99.77
59767;BME280;46248;58.364;25.582;2023-04-26T06:36:55;99637.63;;;9.02;97.69
59767;BME280;46248;58.364;25.582;2023-04-26T06:40:17;99632.88;;;9.09;98.47
59767;BME280;46248;58.364;25.582;2023-04-26T06:43:40;99633.72;;;9.09;96.11
59767;BME280;46248;58.364;25.582;2023-04-26T06:47:02;99629.91;;;9.15;94.64
59767;BME280;46248;58.364;25.582;2023-04-26T06:50:26;99641.22;;;9.30;94.58
59767;BME280;46248;58.364;25.582;2023-04-26T06:53:48;99638.50;;;9.46;93.89
59767;BME280;46248;58.364;25.582;2023-04-26T06:57:10;99632.06;;;9.66;92.94
59767;BME280;46248;58.364;25.582;2023-04-26T07:00:33;99631.03;;;9.82;93.12
59767;BME280;46248;58.364;25.582;2023-04-26T07:03:55;99642.41;;;9.96;91.99
59767;BME280;46248;58.364;25.582;2023-04-26T07:07:18;99636.69;;;10.03;90.27
59767;BME280;46248;58.364;25.582;2023-04-26T07:10:40;99634.31;;;10.13;89.99
59767;BME280;46248;58.364;25.582;2023-04-26T07:14:03;99638.53;;;10.30;88.43
59767;BME280;46248;58.364;25.582;2023-04-26T07:17:26;99637.09;;;10.39;88.17
59767;BME280;46248;58.364;25.582;2023-04-26T07:20:49;99635.19;;;10.41;87.22
59767;BME280;46248;58.364;25.582;2023-04-26T07:24:11;99646.63;;;10.40;86.91
59767;BME280;46248;58.364;25.582;2023-04-26T07:27:33;99649.44;;;10.37;87.16
59767;BME280;46248;58.364;25.582;2023-04-26T07:30:55;99653.06;;;10.34;86.43
59767;BME280;46248;58.364;25.582;2023-04-26T07:34:18;99653.81;;;10.36;86.14
59767;BME280;46248;58.364;25.582;2023-04-26T07:37:41;99655.69;;;10.34;86.51
59767;BME280;46248;58.364;25.582;2023-04-26T07:41:03;99657.19;;;10.38;86.81
59767;BME280;46248;58.364;25.582;2023-04-26T07:44:25;99656.13;;;10.41;86.44
59767;BME280;46248;58.364;25.582;2023-04-26T07:47:47;99663.03;;;10.56;86.70
59767;BME280;46248;58.364;25.582;2023-04-26T07:51:11;99663.06;;;10.69;85.86
59767;BME280;46248;58.364;25.582;2023-04-26T07:54:33;99666.66;;;10.81;85.30
59767;BME280;46248;58.364;25.582;2023-04-26T07:57:55;99667.72;;;11.04;85.39
59767;BME280;46248;58.364;25.582;2023-04-26T08:01:17;99672.69;;;11.34;83.72
59767;BME280;46248;58.364;25.582;2023-04-26T08:04:41;99658.94;;;11.56;82.95
59767;BME280;46248;58.364;25.582;2023-04-26T08:08:09;99661.38;;;11.72;81.96
59767;BME280;46248;58.364;25.582;2023-04-26T08:11:32;99664.00;;;11.72;80.76
59767;BME280;46248;58.364;25.582;2023-04-26T08:14:54;99661.03;;;11.76;80.02
59767;BME280;46248;58.364;25.582;2023-04-26T08:18:16;99647.63;;;11.81;80.81
59767;BME280;46248;58.364;25.582;2023-04-26T08:21:37;99665.03;;;11.95;79.33
59767;BME280;46248;58.364;25.582;2023-04-26T08:25:01;99661.97;;;12.13;79.15
59767;BME280;46248;58.364;25.582;2023-04-26T08:28:23;99658.09;;;12.30;77.91
59767;BME280;46248;58.364;25.582;2023-04-26T08:31:45;99662.75;;;12.51;77.96
59767;BME280;46248;58.364;25.582;2023-04-26T08:35:08;99659.16;;;12.52;76.19
59767;BME280;46248;58.364;25.582;2023-04-26T08:38:30;99656.47;;;12.65;77.23
59767;BME280;46248;58.364;25.582;2023-04-26T08:41:54;99655.84;;;12.85;75.28
59767;BME280;46248;58.364;25.582;2023-04-26T08:45:18;99648.25;;;12.93;73.83
59767;BME280;46248;58.364;25.582;2023-04-26T08:48:40;99642.84;;;12.95;74.43
59767;BME280;46248;58.364;25.582;2023-04-26T08:52:03;99652.84;;;13.14;74.91
59767;BME280;46248;58.364;25.582;2023-04-26T08:55:26;99658.75;;;13.40;73.34
59767;BME280;46248;58.364;25.582;2023-04-26T08:58:49;99645.63;;;13.62;73.27
59767;BME280;46248;58.364;25.582;2023-04-26T09:02:18;99654.63;;;13.71;71.75
59767;BME280;46248;58.364;25.582;2023-04-26T09:05:41;99642.28;;;13.60;70.99
59767;BME280;46248;58.364;25.582;2023-04-26T09:09:07;99656.50;;;13.58;70.00
59767;BME280;46248;58.364;25.582;2023-04-26T09:12:29;99660.44;;;13.52;70.54
59767;BME280;46248;58.364;25.582;2023-04-26T09:15:52;99650.41;;;13.57;69.80
59767;BME280;46248;58.364;25.582;2023-04-26T09:19:15;99651.84;;;13.61;70.90
59767;BME280;46248;58.364;25.582;2023-04-26T09:22:36;99657.25;;;13.71;70.24
59767;BME280;46248;58.364;25.582;2023-04-26T09:26:14;99645.88;;;13.82;69.51
59767;BME280;46248;58.364;25.582;2023-04-26T09:29:36;99633.28;;;13.85;69.48
59767;BME280;46248;58.364;25.582;2023-04-26T09:33:01;99642.03;;;13.97;68.79
59767;BME280;46248;58.364;25.582;2023-04-26T09:36:24;99639.63;;;13.94;68.37
59767;BME280;46248;58.364;25.582;2023-04-26T09:39:46;99635.69;;;13.88;68.16
59767;BME280;46248;58.364;25.582;2023-04-26T09:43:09;99631.53;;;13.86;69.01
59767;BME280;46248;58.364;25.582;2023-04-26T09:46:32;99637.38;;;13.89;68.44
59767;BME280;46248;58.364;25.582;2023-04-26T09:53:54;99637.97;;;13.93;68.22
59767;BME280;46248;58.364;25.582;2023-04-26T09:57:41;99637.91;;;14.15;68.59
59767;BME280;46248;58.364;25.582;2023-04-26T10:01:06;99625.91;;;14.34;67.77
59767;BME280;46248;58.364;25.582;2023-04-26T10:04:28;99634.50;;;14.47;67.80
59767;BME280;46248;58.364;25.582;2023-04-26T10:07:50;99630.06;;;14.59;67.21
59767;BME280;46248;58.364;25.582;2023-04-26T10:11:13;99635.78;;;14.64;66.87
59767;BME280;46248;58.364;25.582;2023-04-26T10:14:35;99632.03;;;14.66;66.48
59767;BME280;46248;58.364;25.582;2023-04-26T10:17:58;99627.50;;;14.69;66.19
59767;BME280;46248;58.364;25.582;2023-04-26T10:21:26;99637.22;;;14.68;65.67
59767;BME280;46248;58.364;25.582;2023-04-26T10:24:50;99632.50;;;14.72;65.44
59767;BME280;46248;58.364;25.582;2023-04-26T10:28:14;99631.78;;;14.70;65.28
59767;BME280;46248;58.364;25.582;2023-04-26T10:32:04;99644.28;;;14.68;65.18
59767;BME280;46248;58.364;25.582;2023-04-26T10:35:27;99640.34;;;14.62;65.63
59767;BME280;46248;58.364;25.582;2023-04-26T10:39:17;99633.53;;;14.59;65.18
59767;BME280;46248;58.364;25.582;2023-04-26T10:42:39;99632.09;;;14.55;65.32
59767;BME280;46248;58.364;25.582;2023-04-26T10:46:33;99631.50;;;14.52;64.30
59767;BME280;46248;58.364;25.582;2023-04-26T10:50:06;99636.41;;;14.56;65.48
59767;BME280;46248;58.364;25.582;2023-04-26T10:53:29;99641.03;;;14.64;65.14
59767;BME280;46248;58.364;25.582;2023-04-26T10:56:52;99633.59;;;14.69;64.67
59767;BME280;46248;58.364;25.582;2023-04-26T11:00:28;99631.69;;;14.71;63.86
59767;BME280;46248;58.364;25.582;2023-04-26T11:04:07;99635.16;;;14.72;63.39
59767;BME280;46248;58.364;25.582;2023-04-26T11:07:36;99623.84;;;14.81;63.88
59767;BME280;46248;58.364;25.582;2023-04-26T11:11:05;99623.91;;;14.91;63.09
59767;BME280;46248;58.364;25.582;2023-04-26T11:14:29;99631.31;;;14.97;63.85
59767;BME280;46248;58.364;25.582;2023-04-26T11:17:51;99624.88;;;15.10;62.77
59767;BME280;46248;58.364;25.582;2023-04-26T11:21:14;99615.38;;;15.19;61.77
59767;BME280;46248;58.364;25.582;2023-04-26T11:24:39;99620.69;;;15.29;61.97
59767;BME280;46248;58.364;25.582;2023-04-26T11:28:01;99615.13;;;15.53;62.21
59767;BME280;46248;58.364;25.582;2023-04-26T11:31:23;99619.81;;;15.70;60.62
59767;BME280;46248;58.364;25.582;2023-04-26T11:34:45;99621.06;;;15.55;58.97
59767;BME280;46248;58.364;25.582;2023-04-26T11:38:11;99619.91;;;15.38;60.63
59767;BME280;46248;58.364;25.582;2023-04-26T11:41:33;99625.50;;;15.24;61.12
59767;BME280;46248;58.364;25.582;2023-04-26T11:44:55;99635.06;;;15.25;61.08
59767;BME280;46248;58.364;25.582;2023-04-26T11:48:18;99627.78;;;15.28;60.70
59767;BME280;46248;58.364;25.582;2023-04-26T11:51:40;99627.50;;;15.31;60.98
59767;BME280;46248;58.364;25.582;2023-04-26T11:55:05;99628.38;;;15.42;62.39
59767;BME280;46248;58.364;25.582;2023-04-26T11:58:27;99621.78;;;15.57;61.65
59767;BME280;46248;58.364;25.582;2023-04-26T12:01:50;99623.91;;;15.63;61.46
59767;BME280;46248;58.364;25.582;2023-04-26T12:05:23;99630.28;;;15.61;59.81
59767;BME280;46248;58.364;25.582;2023-04-26T12:08:48;99628.56;;;15.50;60.31
59767;BME280;46248;58.364;25.582;2023-04-26T12:12:12;99618.13;;;15.48;61.43
59767;BME280;46248;58.364;25.582;2023-04-26T12:15:34;99615.25;;;15.61;61.35
59767;BME280;46248;58.364;25.582;2023-04-26T12:18:56;99615.81;;;15.86;61.13
59767;BME280;46248;58.364;25.582;2023-04-26T12:22:19;99617.94;;;16.01;58.40
59767;BME280;46248;58.364;25.582;2023-04-26T12:25:52;99607.31;;;15.82;57.21
59767;BME280;46248;58.364;25.582;2023-04-26T12:29:16;99619.66;;;15.72;58.10
59767;BME280;46248;58.364;25.582;2023-04-26T12:32:38;99614.03;;;15.55;58.35
59767;BME280;46248;58.364;25.582;2023-04-26T12:36:08;99607.19;;;15.53;59.05
59767;BME280;46248;58.364;25.582;2023-04-26T12:39:30;99602.03;;;15.51;57.98
59767;BME280;46248;58.364;25.582;2023-04-26T12:42:53;99598.56;;;15.51;57.89
59767;BME280;46248;58.364;25.582;2023-04-26T12:46:16;99594.28;;;15.50;57.83
59767;BME280;46248;58.364;25.582;2023-04-26T12:49:38;99598.28;;;15.44;57.77
59767;BME280;46248;58.364;25.582;2023-04-26T12:53:00;99596.81;;;15.30;57.28
59767;BME280;46248;58.364;25.582;2023-04-26T12:56:22;99592.06;;;15.24;58.64
59767;BME280;46248;58.364;25.582;2023-04-26T12:59:45;99585.94;;;15.24;58.15
59767;BME280;46248;58.364;25.582;2023-04-26T13:03:08;99592.63;;;15.28;58.86
59767;BME280;46248;58.364;25.582;2023-04-26T13:06:30;99592.63;;;15.28;58.07
59767;BME280;46248;58.364;25.582;2023-04-26T13:09:52;99593.22;;;15.31;58.23
59767;BME280;46248;58.364;25.582;2023-04-26T13:13:14;99582.53;;;15.33;57.49
59767;BME280;46248;58.364;25.582;2023-04-26T13:16:36;99579.84;;;15.23;57.60
59767;BME280;46248;58.364;25.582;2023-04-26T13:20:03;99580.81;;;15.22;58.05
59767;BME280;46248;58.364;25.582;2023-04-26T13:23:25;99582.22;;;15.26;58.01
59767;BME280;46248;58.364;25.582;2023-04-26T13:26:47;99582.94;;;15.28;57.37
59767;BME280;46248;58.364;25.582;2023-04-26T13:30:10;99576.38;;;15.23;57.61
59767;BME280;46248;58.364;25.582;2023-04-26T13:33:32;99578.75;;;15.26;58.06
59767;BME280;46248;58.364;25.582;2023-04-26T13:36:56;99576.59;;;15.10;56.30
59767;BME280;46248;58.364;25.582;2023-04-26T13:40:19;99590.47;;;14.91;57.27
59767;BME280;46248;58.364;25.582;2023-04-26T13:43:42;99599.34;;;14.90;57.63
59767;BME280;46248;58.364;25.582;2023-04-26T13:47:04;99597.94;;;14.86;58.08
59767;BME280;46248;58.364;25.582;2023-04-26T13:50:27;99603.91;;;14.88;57.43
59767;BME280;46248;58.364;25.582;2023-04-26T13:53:50;99600.25;;;14.79;57.49
59767;BME280;46248;58.364;25.582;2023-04-26T13:57:12;99601.66;;;14.62;56.96
59767;BME280;46248;58.364;25.582;2023-04-26T14:00:34;99581.47;;;14.52;57.28
59767;BME280;46248;58.364;25.582;2023-04-26T14:03:55;99583.16;;;14.53;57.36
59767;BME280;46248;58.364;25.582;2023-04-26T14:07:17;99585.34;;;14.69;56.68
59767;BME280;46248;58.364;25.582;2023-04-26T14:10:41;99582.66;;;14.80;55.63
59767;BME280;46248;58.364;25.582;2023-04-26T14:14:03;99597.50;;;14.81;56.39
59767;BME280;46248;58.364;25.582;2023-04-26T14:17:25;99600.31;;;14.68;55.36
59767;BME280;46248;58.364;25.582;2023-04-26T14:20:48;99593.69;;;14.41;54.98
59767;BME280;46248;58.364;25.582;2023-04-26T14:24:10;99592.00;;;13.97;54.73
59767;BME280;46248;58.364;25.582;2023-04-26T14:27:36;99617.88;;;13.69;55.69
59767;BME280;46248;58.364;25.582;2023-04-26T14:30:58;99631.16;;;13.57;56.30
59767;BME280;46248;58.364;25.582;2023-04-26T14:34:20;99643.94;;;13.39;56.20
59767;BME280;46248;58.364;25.582;2023-04-26T14:37:43;99647.13;;;13.20;57.03
59767;BME280;46248;58.364;25.582;2023-04-26T14:41:05;99653.19;;;13.09;57.62
59767;BME280;46248;58.364;25.582;2023-04-26T14:44:28;99665.25;;;13.12;58.33
59767;BME280;46248;58.364;25.582;2023-04-26T14:47:50;99677.28;;;13.03;57.83
59767;BME280;46248;58.364;25.582;2023-04-26T14:51:12;99677.69;;;12.86;57.26
59767;BME280;46248;58.364;25.582;2023-04-26T14:54:36;99686.69;;;12.59;56.39
59767;BME280;46248;58.364;25.582;2023-04-26T14:57:58;99687.44;;;12.48;56.52
59767;BME280;46248;58.364;25.582;2023-04-26T15:01:21;99689.16;;;12.36;56.48
59767;BME280;46248;58.364;25.582;2023-04-26T15:04:43;99685.44;;;12.15;56.55
59767;BME280;46248;58.364;25.582;2023-04-26T15:08:05;99699.00;;;12.09;56.66
59767;BME280;46248;58.364;25.582;2023-04-26T15:11:27;99706.47;;;12.02;56.71
59767;BME280;46248;58.364;25.582;2023-04-26T15:14:49;99717.63;;;11.93;55.84
59767;BME280;46248;58.364;25.582;2023-04-26T15:18:12;99735.44;;;11.88;55.68
59767;BME280;46248;58.364;25.582;2023-04-26T15:21:34;99730.28;;;11.74;56.35
59767;BME280;46248;58.364;25.582;2023-04-26T15:24:56;99733.09;;;11.58;57.49
59767;BME280;46248;58.364;25.582;2023-04-26T15:28:18;99739.50;;;11.41;58.57
59767;BME280;46248;58.364;25.582;2023-04-26T15:31:40;99742.69;;;11.19;60.46
59767;BME280;46248;58.364;25.582;2023-04-26T15:35:04;99748.88;;;11.18;60.92
59767;BME280;46248;58.364;25.582;2023-04-26T15:38:27;99754.53;;;11.12;60.86
59767;BME280;46248;58.364;25.582;2023-04-26T15:41:48;99749.88;;;10.90;61.79
59767;BME280;46248;58.364;25.582;2023-04-26T15:45:10;99742.78;;;10.77;62.04
59767;BME280;46248;58.364;25.582;2023-04-26T15:48:32;99754.13;;;10.64;62.76
59767;BME280;46248;58.364;25.582;2023-04-26T15:51:55;99755.66;;;10.53;62.87
59767;BME280;46248;58.364;25.582;2023-04-26T15:55:18;99765.22;;;10.40;62.93
59767;BME280;46248;58.364;25.582;2023-04-26T15:58:41;99766.31;;;10.22;64.95
59767;BME280;46248;58.364;25.582;2023-04-26T16:02:03;99772.31;;;10.09;66.02
59767;BME280;46248;58.364;25.582;2023-04-26T16:05:25;99769.25;;;10.03;66.34
59767;BME280;46248;58.364;25.582;2023-04-26T16:08:48;99770.63;;;9.94;67.70
59767;BME280;46248;58.364;25.582;2023-04-26T16:12:10;99782.41;;;9.87;67.40
59767;BME280;46248;58.364;25.582;2023-04-26T16:15:32;99779.84;;;9.71;71.16
59767;BME280;46248;58.364;25.582;2023-04-26T16:18:54;99784.06;;;9.59;72.61
59767;BME280;46248;58.364;25.582;2023-04-26T16:22:16;99794.19;;;9.50;72.29
59767;BME280;46248;58.364;25.582;2023-04-26T16:25:39;99804.25;;;9.42;74.51
59767;BME280;46248;58.364;25.582;2023-04-26T16:29:01;99796.19;;;9.30;74.36
59767;BME280;46248;58.364;25.582;2023-04-26T16:32:24;99787.97;;;9.06;76.55
59767;BME280;46248;58.364;25.582;2023-04-26T16:35:48;99795.66;;;8.93;77.29
59767;BME280;46248;58.364;25.582;2023-04-26T16:39:11;99800.13;;;8.91;77.16
59767;BME280;46248;58.364;25.582;2023-04-26T16:42:36;99805.19;;;8.79;78.22
59767;BME280;46248;58.364;25.582;2023-04-26T16:46:04;99809.47;;;8.64;81.86
59767;BME280;46248;58.364;25.582;2023-04-26T16:49:26;99820.16;;;8.59;80.30
59767;BME280;46248;58.364;25.582;2023-04-26T16:52:48;99819.81;;;8.49;81.63
59767;BME280;46248;58.364;25.582;2023-04-26T16:56:09;99823.53;;;8.45;82.07
59767;BME280;46248;58.364;25.582;2023-04-26T16:59:33;99825.66;;;8.37;83.88
59767;BME280;46248;58.364;25.582;2023-04-26T17:02:55;99827.84;;;8.29;83.74
59767;BME280;46248;58.364;25.582;2023-04-26T17:06:17;99827.22;;;8.24;85.75
59767;BME280;46248;58.364;25.582;2023-04-26T17:09:39;99823.34;;;8.15;86.33
59767;BME280;46248;58.364;25.582;2023-04-26T17:13:01;99811.88;;;8.02;85.87
59767;BME280;46248;58.364;25.582;2023-04-26T17:16:24;99831.97;;;8.00;89.09
59767;BME280;46248;58.364;25.582;2023-04-26T17:19:46;99827.44;;;7.86;88.35
59767;BME280;46248;58.364;25.582;2023-04-26T17:23:08;99832.06;;;7.81;89.50
59767;BME280;46248;58.364;25.582;2023-04-26T17:26:31;99828.91;;;7.74;90.10
59767;BME280;46248;58.364;25.582;2023-04-26T17:29:53;99837.13;;;7.67;91.74
59767;BME280;46248;58.364;25.582;2023-04-26T17:33:16;99838.22;;;7.63;91.22
59767;BME280;46248;58.364;25.582;2023-04-26T17:54:50;99876.81;;;7.18;90.83
59767;BME280;46248;58.364;25.582;2023-04-26T17:58:11;99850.81;;;6.99;91.25
59767;BME280;46248;58.364;25.582;2023-04-26T18:01:33;99876.47;;;7.07;90.62
59767;BME280;46248;58.364;25.582;2023-04-26T18:04:55;99888.50;;;7.09;90.68
59767;BME280;46248;58.364;25.582;2023-04-26T18:08:17;99891.25;;;7.06;90.77